createdAt,value
2023-10-10T00:02:20.048Z,99044.19
2023-10-10T00:07:28.873Z,99048.48
2023-10-10T00:12:36.641Z,99049.46
2023-10-10T00:17:44.219Z,99049.14
2023-10-10T00:22:59.786Z,99043.34
2023-10-10T00:28:17.833Z,99040.14
2023-10-10T00:33:24.425Z,99036.01
2023-10-10T00:38:31.166Z,99040.29
2023-10-10T00:43:38.310Z,99044.83
2023-10-10T00:48:46.014Z,99040.23
2023-10-10T00:54:12.844Z,99039.00
2023-10-10T00:59:18.516Z,99030.15
2023-10-10T01:04:36.976Z,99031.16
2023-10-10T01:09:57.337Z,99030.80
2023-10-10T01:15:09.662Z,99029.97
2023-10-10T01:20:27.214Z,99021.07
2023-10-10T01:25:46.690Z,99012.15
2023-10-10T01:31:05.783Z,99019.98
2023-10-10T01:36:20.537Z,99018.44
2023-10-10T01:41:33.207Z,99026.86
2023-10-10T01:46:39.246Z,99029.73
2023-10-10T01:51:46.677Z,99031.30
2023-10-10T01:56:54.909Z,99036.48
2023-10-10T02:02:00.944Z,99030.55
2023-10-10T02:07:17.229Z,99035.27
2023-10-10T02:12:23.770Z,99031.60
2023-10-10T02:17:31.417Z,99026.08
2023-10-10T02:22:48.951Z,99032.63
2023-10-10T02:27:57.668Z,99041.01
2023-10-10T02:33:04.300Z,99035.50
2023-10-10T02:38:13.183Z,99042.27
2023-10-10T02:43:34.382Z,99044.91
2023-10-10T02:48:43.631Z,99039.36
2023-10-10T02:53:49.364Z,99037.02
2023-10-10T02:58:55.804Z,99033.23
2023-10-10T03:04:04.570Z,99041.81
2023-10-10T03:09:15.880Z,99042.64
2023-10-10T03:14:28.375Z,99037.27
2023-10-10T03:19:40.106Z,99037.95
2023-10-10T03:25:09.446Z,99039.05
2023-10-10T03:30:23.363Z,99039.36
2023-10-10T03:35:45.864Z,99034.91
2023-10-10T03:41:05.452Z,99035.94
2023-10-10T03:46:43.290Z,99039.61
2023-10-10T03:52:21.198Z,99045.44
2023-10-10T03:57:44.274Z,99048.02
2023-10-10T04:03:07.510Z,99045.58
2023-10-10T04:08:31.173Z,99047.51
2023-10-10T04:13:54.424Z,99050.23
2023-10-10T04:19:17.768Z,99053.34
2023-10-10T04:24:41.333Z,99060.73
2023-10-10T04:30:04.771Z,99062.33
2023-10-10T04:35:28.329Z,99063.45
2023-10-10T04:41:06.881Z,99065.56
2023-10-10T04:46:36.758Z,99061.66
2023-10-10T04:52:00.006Z,99071.20
2023-10-10T04:57:23.231Z,99075.27
2023-10-10T05:02:46.236Z,99071.11
2023-10-10T05:08:11.193Z,99068.67
2023-10-10T05:13:34.845Z,99066.02
2023-10-10T05:18:58.307Z,99061.55
2023-10-10T05:24:04.127Z,99066.91
2023-10-10T05:29:12.114Z,99080.58
2023-10-10T05:34:18.170Z,99083.13
2023-10-10T05:39:24.104Z,99089.02
2023-10-10T05:44:30.839Z,99080.48
2023-10-10T05:49:38.069Z,99078.10
2023-10-10T05:54:43.855Z,99079.06
2023-10-10T05:59:49.669Z,99085.22
2023-10-10T06:04:55.996Z,99088.73
2023-10-10T06:10:07.167Z,99086.44
2023-10-10T06:15:13.146Z,99083.37
2023-10-10T06:20:27.377Z,99080.49
2023-10-10T06:25:34.064Z,99085.16
2023-10-10T06:30:40.556Z,99088.58
2023-10-10T06:35:53.986Z,99087.54
2023-10-10T06:41:00.702Z,99091.64
2023-10-10T06:46:07.460Z,99091.77
2023-10-10T06:51:13.367Z,99090.90
2023-10-10T06:56:19.221Z,99099.56
2023-10-10T07:01:25.797Z,99115.08
2023-10-10T07:06:32.075Z,99118.30
2023-10-10T07:11:40.441Z,99117.68
2023-10-10T07:16:46.244Z,99120.13
2023-10-10T07:21:53.160Z,99117.53
2023-10-10T07:27:07.280Z,99118.18
2023-10-10T07:32:18.319Z,99134.70
2023-10-10T07:37:24.990Z,99144.64
2023-10-10T07:42:32.468Z,99142.23
2023-10-10T07:47:58.785Z,99138.01
2023-10-10T07:53:07.349Z,99151.30
2023-10-10T07:58:15.299Z,99150.40
2023-10-10T08:03:21.641Z,99150.29
2023-10-10T08:08:28.633Z,99154.68
2023-10-10T08:13:34.320Z,99149.90
2023-10-10T08:18:53.910Z,99152.76
2023-10-10T08:24:00.520Z,99151.88
2023-10-10T08:29:08.356Z,99149.20
2023-10-10T08:34:16.255Z,99150.86
2023-10-10T08:39:27.398Z,99157.49
2023-10-10T08:44:37.354Z,99156.31
2023-10-10T08:49:43.439Z,99167.65
2023-10-10T08:54:49.161Z,99170.27
2023-10-10T08:59:55.992Z,99170.25
2023-10-10T09:05:02.013Z,99166.06
2023-10-10T09:10:07.817Z,99169.70
2023-10-10T09:15:18.430Z,99169.86
2023-10-10T09:20:30.453Z,99165.27
2023-10-10T09:25:44.129Z,99154.84
2023-10-10T09:31:00.487Z,99139.91
2023-10-10T09:36:10.639Z,99143.91
2023-10-10T09:41:29.734Z,99152.75
2023-10-10T09:47:00.985Z,99151.60
2023-10-10T09:52:26.491Z,99156.62
2023-10-10T09:57:33.362Z,99164.65
2023-10-10T10:02:45.308Z,99174.29
2023-10-10T10:08:02.286Z,99166.27
2023-10-10T10:13:25.516Z,99164.63
2023-10-10T10:18:45.829Z,99154.63
2023-10-10T10:23:57.895Z,99157.80
2023-10-10T10:29:17.397Z,99154.01
2023-10-10T10:34:32.537Z,99151.73
2023-10-10T10:39:39.135Z,99148.84
2023-10-10T10:44:48.501Z,99149.16
2023-10-10T10:49:57.469Z,99155.09
2023-10-10T10:55:23.208Z,99158.75
2023-10-10T11:00:58.433Z,99159.15
2023-10-10T11:06:07.889Z,99160.58
2023-10-10T11:11:27.256Z,99149.81
2023-10-10T11:16:39.765Z,99157.88
2023-10-10T11:21:50.072Z,99157.67
2023-10-10T11:27:16.405Z,99157.05
2023-10-10T11:32:26.644Z,99156.56
2023-10-10T11:37:43.876Z,99153.58
2023-10-10T11:42:51.776Z,99145.86
2023-10-10T11:48:02.502Z,99147.84
2023-10-10T11:53:09.353Z,99144.94
2023-10-10T11:58:18.891Z,99148.84
2023-10-10T12:03:43.684Z,99142.75
2023-10-10T12:08:51.843Z,99134.55
2023-10-10T12:13:57.968Z,99137.59
2023-10-10T12:19:07.200Z,99139.11
2023-10-10T12:24:13.655Z,99135.62
2023-10-10T12:29:19.690Z,99130.06
2023-10-10T12:34:26.723Z,99120.55
2023-10-10T12:39:33.029Z,99116.31
2023-10-10T12:44:38.890Z,99110.16
2023-10-10T12:49:46.310Z,99106.25
2023-10-10T12:54:59.970Z,99104.51
2023-10-10T13:00:23.715Z,99112.73
2023-10-10T13:05:29.746Z,99111.58
2023-10-10T13:10:38.970Z,99116.26
2023-10-10T13:15:53.639Z,99112.84
2023-10-10T13:21:01.682Z,99112.92
2023-10-10T13:26:07.547Z,99085.12
2023-10-10T13:31:13.521Z,99081.98
2023-10-10T13:36:19.376Z,99086.43
2023-10-10T13:41:30.971Z,99092.91
2023-10-10T13:46:37.585Z,99093.09
2023-10-10T13:51:43.859Z,99085.25
2023-10-10T13:56:51.815Z,99087.63
2023-10-10T14:02:04.496Z,99091.17
2023-10-10T14:07:12.620Z,99097.39
2023-10-10T14:12:22.244Z,99094.14
2023-10-10T14:17:28.170Z,99079.98
2023-10-10T14:22:49.490Z,99083.53
2023-10-10T14:27:59.704Z,99091.92
2023-10-10T14:33:05.808Z,99090.91
2023-10-10T14:38:14.384Z,99085.46
2023-10-10T14:43:20.917Z,99081.52
2023-10-10T14:48:27.033Z,99089.30
2023-10-10T14:53:36.144Z,99089.10
2023-10-10T14:58:42.459Z,99086.75
2023-10-10T15:03:51.765Z,99079.27
2023-10-10T15:08:57.978Z,99087.73
2023-10-10T15:14:07.840Z,99092.13
2023-10-10T15:19:13.740Z,99087.88
2023-10-10T15:24:20.632Z,99086.33
2023-10-10T15:29:29.742Z,99090.16
2023-10-10T15:34:35.519Z,99087.30
2023-10-10T15:39:40.560Z,99086.83
2023-10-10T15:44:48.481Z,99092.09
2023-10-10T15:50:01.544Z,99096.29
2023-10-10T15:55:12.215Z,99107.05
2023-10-10T16:00:22.318Z,99115.95
2023-10-10T16:05:28.408Z,99116.73
2023-10-10T16:10:37.011Z,99124.26
2023-10-10T16:15:44.249Z,99125.27
2023-10-10T16:20:49.430Z,99134.27
2023-10-10T16:25:55.276Z,99143.10
2023-10-10T16:30:59.328Z,99151.84
2023-10-10T16:36:04.267Z,99157.10
2023-10-10T16:41:09.992Z,99159.55
2023-10-10T16:46:14.173Z,99164.66
2023-10-10T16:51:21.902Z,99165.41
2023-10-10T16:56:28.642Z,99160.48
2023-10-10T17:01:35.978Z,99154.83
2023-10-10T17:06:41.961Z,99155.33
2023-10-10T17:11:52.421Z,99151.14
2023-10-10T17:16:58.921Z,99151.92
2023-10-10T17:22:04.675Z,99156.70
2023-10-10T17:27:10.711Z,99156.38
2023-10-10T17:32:17.316Z,99163.42
2023-10-10T17:37:24.133Z,99165.17
2023-10-10T17:42:30.083Z,99169.23
2023-10-10T17:47:34.203Z,99159.11
2023-10-10T17:52:39.898Z,99159.65
2023-10-10T17:57:45.620Z,99159.23
2023-10-10T18:02:51.480Z,99163.52
2023-10-10T18:07:59.314Z,99165.22
2023-10-10T18:13:06.097Z,99168.56
2023-10-10T18:18:12.093Z,99175.96
2023-10-10T18:23:17.776Z,99171.15
2023-10-10T18:28:23.670Z,99176.65
2023-10-10T18:33:29.426Z,99176.05
2023-10-10T18:38:35.069Z,99175.70
2023-10-10T18:43:43.490Z,99177.70
2023-10-10T18:48:49.637Z,99181.64
2023-10-10T18:53:57.140Z,99175.80
2023-10-10T18:59:02.891Z,99181.45
2023-10-10T19:04:09.500Z,99185.73
2023-10-10T19:09:19.703Z,99184.88
2023-10-10T19:14:28.221Z,99184.52
2023-10-10T19:19:34.086Z,99182.39
2023-10-10T19:24:41.029Z,99182.21
2023-10-10T19:29:46.794Z,99181.55
2023-10-10T19:34:51.783Z,99179.96
2023-10-10T19:39:57.417Z,99182.50
2023-10-10T19:45:24.478Z,99187.30
2023-10-10T19:50:32.075Z,99180.72
2023-10-10T19:55:38.816Z,99182.60
2023-10-10T20:00:47.946Z,99188.02
2023-10-10T20:05:54.436Z,99185.45
2023-10-10T20:11:01.104Z,99184.29
2023-10-10T20:16:16.178Z,99175.67
2023-10-10T20:21:22.094Z,99171.22
2023-10-10T20:26:28.939Z,99174.64
2023-10-10T20:31:34.848Z,99176.14
2023-10-10T20:36:40.550Z,99169.59
2023-10-10T20:41:49.879Z,99167.45
2023-10-10T20:46:56.329Z,99168.16
2023-10-10T20:52:02.742Z,99164.17
2023-10-10T20:57:08.563Z,99164.33
2023-10-10T21:02:14.352Z,99169.65
2023-10-10T21:07:21.300Z,99163.47
2023-10-10T21:12:27.236Z,99160.54
2023-10-10T21:17:34.110Z,99155.74
2023-10-10T21:22:40.121Z,99146.46
2023-10-10T21:27:50.840Z,99141.94
2023-10-10T21:32:57.752Z,99142.14
2023-10-10T21:38:03.987Z,99137.45
2023-10-10T21:43:09.630Z,99133.37
2023-10-10T21:48:15.488Z,99121.75
2023-10-10T21:53:21.359Z,99119.36
2023-10-10T21:58:27.377Z,99119.71
2023-10-10T22:03:34.267Z,99115.41
2023-10-10T22:08:40.463Z,99111.78
2023-10-10T22:13:49.843Z,99108.69
2023-10-10T22:18:59.075Z,99103.39
2023-10-10T22:24:05.972Z,99105.64
2023-10-10T22:29:12.531Z,99102.15
2023-10-10T22:34:19.173Z,99094.85
2023-10-10T22:39:26.336Z,99086.95
2023-10-10T22:44:32.071Z,99092.34
2023-10-10T22:49:37.804Z,99090.86
2023-10-10T22:54:43.505Z,99086.35
2023-10-10T22:59:49.287Z,99080.05
2023-10-10T23:04:55.095Z,99079.32
2023-10-10T23:10:01.524Z,99081.41
2023-10-10T23:15:12.900Z,99080.91
2023-10-10T23:20:21.306Z,99075.92
2023-10-10T23:25:27.660Z,99080.08
2023-10-10T23:30:34.399Z,99082.33
2023-10-10T23:35:40.624Z,99085.84
2023-10-10T23:40:46.794Z,99084.77
2023-10-10T23:45:58.183Z,99084.08
2023-10-10T23:51:08.432Z,99079.52
2023-10-10T23:56:14.463Z,99070.77
